Bishop International Airport
KFNT : now visible

Airfield :











YOU CAN JOIN US ON...

 
LOGIN :

Register | Disclaimer

   EN    FR    IT 

 









Legend :    VFR   Marginal VFR   IFR   Intensive IFR   Very Intensive IFR
Visi :
Ceiling :
>= 8 km
>= 3000ft
5 to 8 km
1000 to 3000 ft
1500m to 5 km
500 to 1000 ft
800 to 1500m
200 to 500 ft
< 800m
< 200 ft
Symbols :   Thunderstorms  Fog  Heavy snow  Heavy precipitations  Wind > 20 kt






- Airport Elevation : 782 ft
- IATA code : FNT


KFNT - Bishop International

CURRENT METAR :
  • 180553Z 21007KT 10SM CLR 24/09 A2985 RMK AO2 SLP100 T02390089 10261 20194 58022 $

EXPIRED METARs :
  • 180453Z 20009KT 10SM CLR 23/09 A2986 RMK AO2 SLP107 T02280094 402830089 $
  • 180353Z 19005KT 10SM FEW120 22/11 A2990 RMK AO2 SLP119 T02170106 $
  • 180253Z 24003KT 10SM CLR 22/10 A2991 RMK AO2 SLP124 T02220100 $

TAF KFNT
Valid from the 18 at 06:00 until the 19 at 06:00 UTC


180527Z 1806/1906 21006KT P6SM SCT080 BKN120 OVC200
FM180800 22008KT 3SM SHRA BR BKN040 OVC090
TEMPO 1810/1812 2SM TSRA BR OVC040CB
FM181300 21010G20KT P6SM SCT100 OVC250
FM181800 24010G20KT P6SM BKN040 OVC200
FM182300 28008KT P6SM SCT100 BKN200
KZOB FIR / North America



MET'MAP, your aeronautical weather chart ! - Copyright ORBIFLY December 2007 - Disclaimer

ORBIFLY MET'MAP TEAM :

Programming & Development : Alexandra Zaïnal
Concept & original design : Baudouin d'Aumeries
Assistance for programming : Marc-Olivier Méhu
Technical & hardware support : Manuel Goepfert

Contact : metmap@orbifly.com




SOURCES & CREDITS :

   NOAA       Earth
Advisory